Time;durP1;ratioP1;P1;durP2;ratioP2;P2;SDS_P1;SDS_P2;PMS_P1;PMS_P2;Temp;Humidity;BMP_temperature;BMP_pressure;BME280_temperature;BME280_humidity;BME280_pressure;Samples;Min_cycle;Max_cycle;Signal;HPM_P1;HPM_P2
2024/04/22 00:01:44;;;;;;;5.13;2.20;;;1.20;99.90;;;;;;5377014;26;19996;-59
2024/04/22 00:04:10;;;;;;;10.07;2.72;;;1.10;99.90;;;;;;5376213;26;20518;-57
2024/04/22 00:06:35;;;;;;;6.40;3.08;;;1.10;99.90;;;;;;5375916;26;19996;-59
2024/04/22 00:09:01;;;;;;;4.95;2.92;;;1.00;99.90;;;;;;5375634;26;20040;-57
2024/04/22 00:11:26;;;;;;;4.78;2.10;;;1.00;99.90;;;;;;5373513;26;20027;-57
2024/04/22 00:13:52;;;;;;;6.13;2.85;;;1.00;99.90;;;;;;5372835;26;20070;-59
2024/04/22 00:16:17;;;;;;;8.23;2.65;;;1.00;99.90;;;;;;5377312;26;20020;-62
2024/04/22 00:18:45;;;;;;;2.75;1.77;;;1.10;99.90;;;;;;5375811;26;20011;-59
2024/04/22 00:21:10;;;;;;;4.13;2.45;;;1.10;99.90;;;;;;5378215;26;20319;-58
2024/04/22 00:23:36;;;;;;;6.57;2.08;;;1.00;99.90;;;;;;5380522;26;20027;-58
2024/04/22 00:26:02;;;;;;;3.88;2.50;;;1.00;99.90;;;;;;5381480;26;20460;-57
2024/04/22 00:28:27;;;;;;;4.20;2.63;;;0.80;99.90;;;;;;5381502;26;20045;-58
2024/04/22 00:30:53;;;;;;;6.05;2.50;;;0.80;99.90;;;;;;5381513;26;20434;-58
2024/04/22 00:33:19;;;;;;;6.65;2.92;;;0.80;99.90;;;;;;5378445;26;20005;-58
2024/04/22 00:35:58;;;;;;;4.45;2.65;;;0.80;99.90;;;;;;5380786;26;20000;-60
2024/04/22 00:38:25;;;;;;;4.90;2.80;;;0.70;99.90;;;;;;5380813;26;20043;-58
2024/04/22 00:40:50;;;;;;;5.18;2.20;;;0.70;99.90;;;;;;5381361;26;20443;-58
2024/04/22 00:43:16;;;;;;;5.07;2.88;;;0.60;99.90;;;;;;5380931;26;20004;-59
2024/04/22 00:45:43;;;;;;;9.05;4.03;;;0.70;99.90;;;;;;5377285;26;20000;-57
2024/04/22 00:48:09;;;;;;;5.85;2.63;;;0.70;99.90;;;;;;5379040;26;20000;-60
2024/04/22 00:50:34;;;;;;;5.45;2.28;;;0.70;99.90;;;;;;5377572;26;20032;-59
2024/04/22 00:53:01;;;;;;;6.50;3.10;;;0.80;99.90;;;;;;5377614;26;20031;-60
2024/04/22 00:55:27;;;;;;;6.05;2.55;;;1.00;99.90;;;;;;5382794;26;20004;-54
2024/04/22 00:57:56;;;;;;;4.50;2.60;;;1.10;99.90;;;;;;5382383;26;20007;-56
2024/04/22 01:00:23;;;;;;;5.00;2.80;;;1.20;99.90;;;;;;5382392;26;20008;-54
2024/04/22 01:02:52;;;;;;;2.63;2.10;;;1.30;99.90;;;;;;5382800;26;20008;-54
2024/04/22 01:05:17;;;;;;;6.60;2.33;;;1.30;99.90;;;;;;5382711;26;20442;-53
2024/04/22 01:07:43;;;;;;;5.57;2.45;;;1.30;99.90;;;;;;5382716;26;20007;-53
2024/04/22 01:10:09;;;;;;;4.88;2.50;;;1.30;99.90;;;;;;5381982;26;20007;-55
2024/04/22 01:12:35;;;;;;;3.58;2.45;;;1.30;99.90;;;;;;5382248;26;19992;-54
2024/04/22 01:15:01;;;;;;;5.70;2.30;;;1.20;99.90;;;;;;5380953;26;20070;-53
2024/04/22 01:17:40;;;;;;;5.90;3.08;;;1.10;99.90;;;;;;5380898;26;20015;-55
2024/04/22 01:20:07;;;;;;;5.43;2.75;;;1.10;99.90;;;;;;5382034;26;20073;-56
2024/04/22 01:22:33;;;;;;;5.53;2.58;;;1.00;99.90;;;;;;5382424;26;20000;-56
2024/04/22 01:25:01;;;;;;;7.60;2.88;;;1.00;99.90;;;;;;5382362;26;20001;-54
2024/04/22 01:27:29;;;;;;;6.03;2.30;;;1.00;99.90;;;;;;5382552;26;20434;-54
2024/04/22 01:29:54;;;;;;;4.18;2.70;;;0.90;99.90;;;;;;5382521;26;20004;-54
2024/04/22 01:32:20;;;;;;;6.38;2.97;;;0.90;99.90;;;;;;5382166;26;20066;-56
2024/04/22 01:34:51;;;;;;;6.43;2.15;;;0.90;99.90;;;;;;5382416;26;19996;-54
2024/04/22 01:37:17;;;;;;;5.07;2.60;;;0.90;99.90;;;;;;5382877;26;20419;-51
2024/04/22 01:39:43;;;;;;;7.28;2.50;;;0.80;99.90;;;;;;5383024;26;20004;-54
2024/04/22 01:42:08;;;;;;;4.93;2.78;;;0.70;99.90;;;;;;5381096;26;20453;-54
2024/04/22 01:44:34;;;;;;;5.22;2.40;;;0.70;99.90;;;;;;5382533;26;20499;-52
2024/04/22 01:47:00;;;;;;;5.57;3.10;;;0.60;99.90;;;;;;5390786;26;20003;-55
2024/04/22 01:49:25;;;;;;;5.53;2.53;;;0.50;99.90;;;;;;5417871;26;20453;-56
2024/04/22 01:51:51;;;;;;;9.90;2.55;;;0.40;99.90;;;;;;5396991;26;20004;-56
2024/04/22 01:54:16;;;;;;;6.70;2.83;;;0.30;99.90;;;;;;5382088;26;20001;-54
2024/04/22 01:56:42;;;;;;;4.95;2.88;;;0.20;99.90;;;;;;5382071;26;20007;-54
2024/04/22 01:59:07;;;;;;;6.68;2.85;;;0.20;99.90;;;;;;5382203;26;20004;-54
2024/04/22 02:01:33;;;;;;;7.80;3.30;;;0.10;99.90;;;;;;5382267;26;20022;-56
2024/04/22 02:03:59;;;;;;;6.00;3.22;;;0.10;99.90;;;;;;5382230;26;20000;-54
2024/04/22 02:06:24;;;;;;;7.20;3.45;;;0.00;99.90;;;;;;5381939;26;19996;-54
2024/04/22 02:08:50;;;;;;;7.20;3.28;;;0.00;99.90;;;;;;5381825;26;20005;-57
2024/04/22 02:11:15;;;;;;;5.60;2.90;;;-0.10;99.90;;;;;;5382028;26;20004;-55
2024/04/22 02:13:41;;;;;;;5.25;2.88;;;-0.10;99.90;;;;;;5382238;26;20007;-54
2024/04/22 02:16:06;;;;;;;5.60;3.20;;;-0.10;99.90;;;;;;5382264;26;20012;-54
2024/04/22 02:18:32;;;;;;;6.85;3.22;;;-0.10;99.90;;;;;;5374202;26;20363;-54
2024/04/22 02:20:58;;;;;;;6.20;3.33;;;-0.10;99.90;;;;;;5345280;26;20009;-55
2024/04/22 02:23:23;;;;;;;4.78;2.80;;;-0.10;99.90;;;;;;5346782;26;20344;-54
2024/04/22 02:25:49;;;;;;;6.15;3.30;;;-0.10;99.90;;;;;;5370350;26;20008;-56
2024/04/22 02:28:15;;;;;;;6.45;3.65;;;-0.10;99.90;;;;;;5381600;26;20050;-56
2024/04/22 02:30:40;;;;;;;5.68;3.05;;;-0.10;99.90;;;;;;5381631;26;20458;-55
2024/04/22 02:33:09;;;;;;;5.45;3.00;;;0.00;99.90;;;;;;5381343;26;20011;-53
2024/04/22 02:35:35;;;;;;;5.43;3.47;;;0.10;99.90;;;;;;5381599;26;20044;-54
2024/04/22 02:38:01;;;;;;;7.32;3.35;;;0.10;99.90;;;;;;5380745;26;20340;-54
2024/04/22 02:40:27;;;;;;;10.93;3.35;;;0.10;99.90;;;;;;5381869;26;20320;-53
2024/04/22 02:42:53;;;;;;;8.68;4.15;;;0.10;99.90;;;;;;5380986;26;20377;-56
2024/04/22 02:45:20;;;;;;;6.25;3.38;;;0.10;99.90;;;;;;5379456;26;20004;-57
2024/04/22 02:47:46;;;;;;;7.07;3.60;;;0.10;99.90;;;;;;5381270;26;20015;-54
2024/04/22 02:50:12;;;;;;;6.55;3.92;;;0.10;99.90;;;;;;5381436;26;20025;-52
2024/04/22 02:52:38;;;;;;;5.32;3.15;;;0.10;99.90;;;;;;5381149;26;20076;-54
2024/04/22 02:55:04;;;;;;;5.38;3.38;;;0.10;99.90;;;;;;5381520;26;20000;-53
2024/04/22 02:57:29;;;;;;;8.70;3.78;;;0.10;99.90;;;;;;5380958;26;20081;-53
2024/04/22 02:59:55;;;;;;;9.98;3.47;;;0.10;99.90;;;;;;5381077;26;20000;-55
2024/04/22 03:02:20;;;;;;;9.10;3.80;;;0.10;99.90;;;;;;5380814;26;20465;-52
2024/04/22 03:04:49;;;;;;;5.35;3.25;;;0.10;99.90;;;;;;5380977;26;20007;-52
2024/04/22 03:07:15;;;;;;;7.30;3.53;;;0.20;99.90;;;;;;5381012;26;20072;-55
2024/04/22 03:09:43;;;;;;;6.72;3.92;;;0.20;99.90;;;;;;5380933;26;20012;-54
2024/04/22 03:12:12;;;;;;;6.35;3.05;;;0.20;99.90;;;;;;5381542;26;20000;-54
2024/04/22 03:14:38;;;;;;;5.43;3.50;;;0.20;99.90;;;;;;5381234;26;20000;-56
2024/04/22 03:17:04;;;;;;;5.00;3.33;;;0.30;99.90;;;;;;5380919;26;20027;-56
2024/04/22 03:19:30;;;;;;;8.98;3.67;;;0.30;99.90;;;;;;5380920;26;20055;-55
2024/04/22 03:21:55;;;;;;;6.30;3.55;;;0.30;99.90;;;;;;5380878;26;20008;-56
2024/04/22 03:24:21;;;;;;;6.05;3.88;;;0.40;99.90;;;;;;5380494;26;20105;-54
2024/04/22 03:26:47;;;;;;;5.20;3.15;;;0.40;99.90;;;;;;5380785;26;20446;-52
2024/04/22 03:29:12;;;;;;;5.22;3.60;;;0.40;99.90;;;;;;5380964;26;20051;-53
2024/04/22 03:31:38;;;;;;;5.95;3.38;;;0.50;99.90;;;;;;5378811;26;20000;-55
2024/04/22 03:34:03;;;;;;;6.50;3.28;;;0.50;99.90;;;;;;5378863;26;20000;-56
2024/04/22 03:36:29;;;;;;;8.38;4.40;;;0.50;99.90;;;;;;5378544;26;20014;-54
2024/04/22 03:38:55;;;;;;;6.80;3.30;;;0.60;99.90;;;;;;5380906;26;20000;-57
2024/04/22 03:41:20;;;;;;;5.32;3.38;;;0.60;99.90;;;;;;5380678;26;20015;-55
2024/04/22 03:43:46;;;;;;;6.93;3.85;;;0.60;99.90;;;;;;5380688;26;20338;-54
2024/04/22 03:51:41;;;;;;;6.50;3.47;;;0.80;99.90;;;;;;5380915;26;20007;-56
2024/04/22 03:54:06;;;;;;;8.20;3.80;;;0.80;99.90;;;;;;5374030;26;20004;-54
2024/04/22 03:56:32;;;;;;;8.50;3.65;;;0.70;99.90;;;;;;5381993;26;20443;-57
2024/04/22 03:58:58;;;;;;;22.52;8.55;;;0.60;99.90;;;;;;5383713;26;20547;-54
2024/04/22 04:01:23;;;;;;;122.97;49.05;;;0.60;99.90;;;;;;5383667;26;19996;-54
2024/04/22 04:03:49;;;;;;;65.35;28.27;;;0.60;99.90;;;;;;5383346;26;20323;-55
2024/04/22 04:06:14;;;;;;;40.28;17.73;;;0.60;99.90;;;;;;5383454;26;20012;-57
2024/04/22 04:08:40;;;;;;;17.00;8.75;;;0.70;99.90;;;;;;5383667;26;20011;-53
2024/04/22 04:11:12;;;;;;;15.13;6.80;;;0.70;99.90;;;;;;5383685;26;20000;-57
2024/04/22 04:13:39;;;;;;;7.78;3.40;;;0.80;99.90;;;;;;5383460;26;20003;-57
2024/04/22 04:16:05;;;;;;;7.88;3.78;;;0.70;99.90;;;;;;5381509;26;20038;-53
2024/04/22 04:18:30;;;;;;;6.65;3.65;;;0.70;99.90;;;;;;5382720;26;19996;-54
2024/04/22 04:20:56;;;;;;;6.57;4.00;;;0.70;99.90;;;;;;5381576;26;20008;-54
2024/04/22 04:23:21;;;;;;;6.68;3.97;;;0.70;99.90;;;;;;5383179;26;20069;-55
2024/04/22 04:25:47;;;;;;;6.78;3.92;;;0.70;99.90;;;;;;5383380;26;20000;-53
2024/04/22 04:28:13;;;;;;;9.07;3.55;;;0.70;99.90;;;;;;5383293;26;20000;-53
2024/04/22 04:30:39;;;;;;;7.60;4.18;;;0.80;99.90;;;;;;5383225;26;20394;-52
2024/04/22 04:33:04;;;;;;;12.50;3.88;;;0.80;99.90;;;;;;5382648;26;20015;-53
2024/04/22 04:35:30;;;;;;;5.57;3.05;;;0.80;99.90;;;;;;5382290;26;20008;-56
2024/04/22 04:37:56;;;;;;;7.15;3.70;;;0.80;99.90;;;;;;5382877;26;20470;-55
2024/04/22 04:40:21;;;;;;;5.05;3.25;;;0.90;99.90;;;;;;5378975;26;20001;-54
2024/04/22 04:42:47;;;;;;;6.85;4.00;;;0.90;99.90;;;;;;5348068;26;19997;-57
2024/04/22 04:45:12;;;;;;;4.60;2.65;;;0.90;99.90;;;;;;5346922;26;20011;-54
2024/04/22 04:47:38;;;;;;;6.50;3.50;;;1.00;99.90;;;;;;5391469;26;19996;-54
2024/04/22 04:50:04;;;;;;;6.18;3.90;;;1.00;99.90;;;;;;5382799;26;19996;-55
2024/04/22 04:52:30;;;;;;;8.98;4.30;;;1.00;99.90;;;;;;5382724;26;20000;-55
2024/04/22 04:54:55;;;;;;;6.28;3.90;;;1.00;99.90;;;;;;5382817;26;20015;-55
2024/04/22 04:57:21;;;;;;;9.48;4.38;;;1.10;99.90;;;;;;5382685;26;19996;-57
2024/04/22 04:59:46;;;;;;;6.40;4.72;;;1.10;99.90;;;;;;5382789;26;20450;-54
2024/04/22 05:02:12;;;;;;;8.13;4.30;;;1.20;99.90;;;;;;5382319;26;20346;-55
2024/04/22 05:04:37;;;;;;;9.07;3.95;;;1.20;99.90;;;;;;5382500;26;20010;-54
2024/04/22 05:07:03;;;;;;;8.75;4.63;;;1.20;99.90;;;;;;5379887;26;20012;-56
2024/04/22 05:09:29;;;;;;;8.35;4.78;;;1.30;99.90;;;;;;5382219;26;20015;-56
2024/04/22 05:11:54;;;;;;;8.00;4.50;;;1.30;99.90;;;;;;5387027;26;20007;-57
2024/04/22 05:14:20;;;;;;;7.18;4.38;;;1.30;99.90;;;;;;5417212;26;19995;-56
2024/04/22 05:16:46;;;;;;;6.72;4.15;;;1.30;99.90;;;;;;5415624;26;20003;-55
2024/04/22 05:19:11;;;;;;;8.93;3.85;;;1.40;99.90;;;;;;5417238;26;19995;-54
2024/04/22 05:21:37;;;;;;;11.07;4.47;;;1.50;99.90;;;;;;5415514;26;20482;-55
2024/04/22 05:24:10;;;;;;;7.30;4.15;;;1.50;99.90;;;;;;5417055;26;20413;-52
2024/04/22 05:26:36;;;;;;;8.63;3.58;;;1.60;99.90;;;;;;5386601;26;20004;-54
2024/04/22 05:29:02;;;;;;;11.02;4.45;;;1.60;99.90;;;;;;5381395;26;20005;-55
2024/04/22 05:31:28;;;;;;;8.05;3.50;;;1.70;99.90;;;;;;5381381;26;20512;-55
2024/04/22 05:36:38;;;;;;;7.72;4.32;;;1.80;99.90;;;;;;5381511;26;20464;-55
2024/04/22 05:39:03;;;;;;;6.80;2.97;;;1.90;99.90;;;;;;5381607;26;20000;-52
2024/04/22 05:41:29;;;;;;;8.85;4.15;;;2.00;99.90;;;;;;5381360;26;20495;-54
2024/04/22 05:43:55;;;;;;;8.98;3.75;;;2.20;99.90;;;;;;5381410;26;20077;-54
2024/04/22 05:46:24;;;;;;;6.85;3.83;;;2.20;99.90;;;;;;5390859;26;20012;-56
2024/04/22 05:48:50;;;;;;;8.07;3.90;;;2.40;99.90;;;;;;5416967;26;20430;-55
2024/04/22 05:51:15;;;;;;;6.78;3.15;;;2.50;99.90;;;;;;5416901;26;20004;-56
2024/04/22 05:53:41;;;;;;;7.53;3.58;;;2.60;99.90;;;;;;5414872;26;20726;-55
2024/04/22 05:56:07;;;;;;;5.88;3.50;;;2.70;99.90;;;;;;5389544;26;20008;-56
2024/04/22 05:58:33;;;;;;;5.57;3.50;;;2.90;99.90;;;;;;5381718;26;20019;-56
2024/04/22 06:00:59;;;;;;;6.05;3.58;;;3.10;99.90;;;;;;5381571;26;20004;-55
2024/04/22 06:03:25;;;;;;;5.38;3.35;;;3.50;99.90;;;;;;5357318;26;20077;-57
2024/04/22 06:05:50;;;;;;;8.10;2.97;;;3.90;99.90;;;;;;5351445;26;20457;-54
2024/04/22 06:08:17;;;;;;;5.45;3.22;;;4.20;99.90;;;;;;5417719;26;20014;-56
2024/04/22 06:10:43;;;;;;;6.13;3.47;;;4.40;99.90;;;;;;5417653;26;20004;-54
2024/04/22 06:13:09;;;;;;;5.53;3.40;;;5.10;99.90;;;;;;5395273;26;20012;-56
2024/04/22 06:15:34;;;;;;;6.05;3.38;;;5.50;99.90;;;;;;5382296;26;20077;-56
2024/04/22 06:18:00;;;;;;;4.80;3.13;;;5.70;99.90;;;;;;5378368;26;20028;-56
2024/04/22 06:20:25;;;;;;;5.45;3.15;;;6.70;99.90;;;;;;5380994;26;20012;-56
2024/04/22 06:22:51;;;;;;;5.28;3.05;;;8.00;99.90;;;;;;5381692;26;20000;-58
2024/04/22 06:25:16;;;;;;;6.03;3.30;;;8.90;99.90;;;;;;5381771;26;20012;-56
2024/04/22 06:27:42;;;;;;;4.90;2.97;;;9.90;99.90;;;;;;5381513;26;20019;-56
2024/04/22 06:30:08;;;;;;;6.88;3.72;;;11.10;99.90;;;;;;5381498;26;20015;-56
2024/04/22 06:32:35;;;;;;;4.53;3.03;;;12.90;98.00;;;;;;5381361;26;20452;-55
2024/04/22 06:35:02;;;;;;;6.10;4.15;;;12.20;96.00;;;;;;5381156;26;20019;-56
2024/04/22 06:37:27;;;;;;;4.72;3.50;;;12.60;95.90;;;;;;5380996;26;20443;-56
2024/04/22 06:39:53;;;;;;;5.50;3.38;;;13.90;94.90;;;;;;5381628;26;20019;-58
2024/04/22 06:42:20;;;;;;;4.38;3.00;;;13.70;92.70;;;;;;5382017;26;20358;-58
2024/04/22 06:44:46;;;;;;;4.00;3.20;;;14.40;93.40;;;;;;5384907;26;19992;-59
2024/04/22 06:47:11;;;;;;;4.32;3.08;;;14.20;92.60;;;;;;5379826;26;20069;-59
2024/04/22 06:49:38;;;;;;;4.90;3.60;;;14.30;93.10;;;;;;5380842;26;20004;-58
2024/04/22 06:52:07;;;;;;;5.28;3.13;;;14.50;91.50;;;;;;5381861;26;20003;-59
2024/04/22 06:54:32;;;;;;;5.93;3.28;;;16.20;90.40;;;;;;5378639;26;20024;-62
2024/04/22 06:56:58;;;;;;;4.53;2.78;;;15.90;90.80;;;;;;5373498;26;20000;-65
2024/04/22 06:59:24;;;;;;;6.95;4.53;;;16.30;90.00;;;;;;5373640;26;20004;-63
2024/04/22 07:01:49;;;;;;;7.32;3.75;;;17.40;86.80;;;;;;5375893;26;20007;-63
2024/04/22 07:04:15;;;;;;;4.28;3.30;;;17.90;85.20;;;;;;5371652;26;20004;-62
2024/04/22 07:06:41;;;;;;;5.53;3.67;;;17.80;83.20;;;;;;5354037;26;20026;-63
2024/04/22 07:09:12;;;;;;;4.43;3.50;;;17.10;81.70;;;;;;5372299;26;20430;-63
2024/04/22 07:11:38;;;;;;;6.10;4.07;;;17.40;82.50;;;;;;5348391;26;20000;-63
2024/04/22 07:14:05;;;;;;;6.20;4.07;;;17.70;79.50;;;;;;5366898;26;20012;-62
2024/04/22 07:16:32;;;;;;;5.15;3.55;;;19.00;79.00;;;;;;5369708;26;20010;-63
2024/04/22 07:18:57;;;;;;;6.30;3.67;;;19.50;80.00;;;;;;5377322;26;20350;-63
2024/04/22 07:21:23;;;;;;;6.20;4.32;;;19.20;77.30;;;;;;5374623;26;20012;-63
2024/04/22 07:23:48;;;;;;;5.82;3.70;;;18.90;75.00;;;;;;5372308;26;20401;-63
2024/04/22 07:26:14;;;;;;;6.95;4.13;;;20.30;73.10;;;;;;5394177;26;19997;-63
2024/04/22 07:28:40;;;;;;;10.05;5.05;;;19.00;74.00;;;;;;5372831;26;20069;-63
2024/04/22 07:31:06;;;;;;;6.88;4.85;;;17.90;73.10;;;;;;5371014;26;20077;-63
2024/04/22 07:33:32;;;;;;;5.38;3.63;;;17.50;74.90;;;;;;5361275;26;20450;-62
2024/04/22 07:36:25;;;;;;;8.00;4.03;;;18.40;72.50;;;;;;5373972;26;20000;-63
2024/04/22 07:38:52;;;;;;;10.32;4.25;;;16.90;73.80;;;;;;5374822;26;19992;-62
2024/04/22 07:41:18;;;;;;;4.68;3.42;;;15.40;77.90;;;;;;5374289;26;20077;-62
2024/04/22 07:43:44;;;;;;;6.82;3.47;;;15.10;80.30;;;;;;5373727;26;19992;-62
2024/04/22 07:46:09;;;;;;;6.43;3.90;;;14.50;79.50;;;;;;5373737;26;20015;-61
2024/04/22 07:48:35;;;;;;;6.00;3.65;;;13.70;83.60;;;;;;5369776;26;20338;-61
2024/04/22 07:51:04;;;;;;;6.10;3.55;;;13.70;83.10;;;;;;5368409;26;20404;-60
2024/04/22 07:53:30;;;;;;;7.20;4.28;;;13.70;82.70;;;;;;5369123;26;20051;-60
2024/04/22 07:55:55;;;;;;;5.63;3.78;;;13.20;82.70;;;;;;5367437;26;20000;-59
2024/04/22 07:58:21;;;;;;;5.07;3.08;;;12.70;83.40;;;;;;5374325;26;20008;-61
2024/04/22 08:00:47;;;;;;;4.88;3.35;;;12.80;85.90;;;;;;5369162;26;20011;-60
2024/04/22 08:03:13;;;;;;;5.07;3.38;;;13.30;82.30;;;;;;5368935;26;20429;-60
2024/04/22 08:05:39;;;;;;;4.53;3.10;;;14.20;81.00;;;;;;5369086;26;20095;-61
2024/04/22 08:08:07;;;;;;;4.70;2.90;;;15.00;78.90;;;;;;5375435;26;20092;-62
2024/04/22 08:10:32;;;;;;;4.10;2.28;;;16.30;78.20;;;;;;5371443;26;19996;-62
2024/04/22 08:12:58;;;;;;;2.65;2.28;;;16.80;75.80;;;;;;5346871;26;20053;-62
2024/04/22 08:15:24;;;;;;;2.33;1.95;;;18.50;75.10;;;;;;5370557;26;20538;-63
2024/04/22 08:17:50;;;;;;;3.55;2.00;;;19.30;74.00;;;;;;5373660;26;20509;-63
2024/04/22 08:20:15;;;;;;;5.20;1.77;;;19.80;65.90;;;;;;5371692;26;20001;-63
2024/04/22 08:22:41;;;;;;;7.30;2.60;;;18.60;66.50;;;;;;5374655;26;20012;-61
2024/04/22 08:25:06;;;;;;;3.90;1.80;;;18.20;65.60;;;;;;5373976;26;20015;-62
2024/04/22 08:27:32;;;;;;;3.20;1.90;;;17.70;63.60;;;;;;5371000;26;20011;-61
2024/04/22 08:29:58;;;;;;;3.00;2.33;;;17.20;64.50;;;;;;5368292;26;20008;-61
2024/04/22 08:32:24;;;;;;;3.25;1.83;;;16.40;63.60;;;;;;5371827;26;20000;-62
2024/04/22 08:34:50;;;;;;;2.40;1.90;;;15.80;65.50;;;;;;5372984;26;20004;-62
2024/04/22 08:37:16;;;;;;;3.03;1.90;;;15.60;65.90;;;;;;5372694;26;20012;-61
2024/04/22 08:39:43;;;;;;;3.15;1.92;;;16.10;65.80;;;;;;5374415;26;20065;-62
2024/04/22 08:42:13;;;;;;;4.78;1.85;;;16.40;62.70;;;;;;5377225;26;20027;-60
2024/04/22 08:44:40;;;;;;;3.50;2.15;;;17.10;61.20;;;;;;5379699;26;20011;-60
2024/04/22 08:47:06;;;;;;;2.67;2.08;;;17.20;64.20;;;;;;5377503;26;20015;-62
2024/04/22 08:49:32;;;;;;;3.78;2.60;;;16.70;66.00;;;;;;5379919;26;19996;-62
2024/04/22 08:51:58;;;;;;;2.78;1.98;;;16.80;67.20;;;;;;5376755;26;20053;-62
2024/04/22 08:54:25;;;;;;;3.75;2.53;;;17.70;63.30;;;;;;5369226;26;20011;-62
2024/04/22 08:56:53;;;;;;;3.35;2.22;;;17.10;63.30;;;;;;5375729;26;20004;-61
2024/04/22 08:59:19;;;;;;;2.40;1.75;;;17.30;65.90;;;;;;5374935;26;20015;-62
2024/04/22 09:01:45;;;;;;;2.72;2.05;;;18.00;65.70;;;;;;5373208;26;20000;-63
2024/04/22 09:04:10;;;;;;;3.47;1.88;;;18.30;62.70;;;;;;5374284;26;19992;-62
2024/04/22 09:06:36;;;;;;;3.10;1.80;;;18.90;61.20;;;;;;5372318;26;20353;-63
2024/04/22 09:09:07;;;;;;;2.45;1.52;;;18.60;63.20;;;;;;5374054;26;20011;-60
2024/04/22 09:11:33;;;;;;;1.85;1.30;;;19.00;59.70;;;;;;5374017;26;20000;-62
2024/04/22 09:14:00;;;;;;;3.67;1.45;;;18.40;59.40;;;;;;5363148;26;20000;-62
2024/04/22 09:16:26;;;;;;;1.85;1.35;;;18.50;56.30;;;;;;5379541;26;20327;-62
2024/04/22 09:18:53;;;;;;;1.98;1.45;;;18.50;59.20;;;;;;5376819;26;20103;-63
2024/04/22 09:21:18;;;;;;;2.65;1.58;;;19.20;59.80;;;;;;5378892;26;20000;-63
2024/04/22 09:23:44;;;;;;;2.25;1.40;;;19.60;55.10;;;;;;5377973;26;20476;-61
2024/04/22 09:26:10;;;;;;;3.53;1.55;;;19.70;56.70;;;;;;5381739;26;20015;-62
2024/04/22 09:28:37;;;;;;;2.17;1.38;;;19.00;53.50;;;;;;5379207;26;19996;-62
2024/04/22 09:31:04;;;;;;;6.30;1.80;;;17.10;56.80;;;;;;5367373;26;20019;-61
2024/04/22 09:33:34;;;;;;;2.40;2.17;;;15.80;58.00;;;;;;5371804;26;20479;-59
2024/04/22 09:36:02;;;;;;;5.15;2.28;;;14.60;59.80;;;;;;5376446;26;20330;-58
2024/04/22 09:38:32;;;;;;;2.03;1.67;;;14.90;61.30;;;;;;5372675;26;20000;-61
2024/04/22 09:41:03;;;;;;;2.05;1.80;;;14.50;62.10;;;;;;5377583;26;19993;-61
2024/04/22 09:43:32;;;;;;;7.68;1.90;;;14.60;61.70;;;;;;5377508;26;20028;-59
2024/04/22 09:46:00;;;;;;;4.53;2.33;;;14.00;62.30;;;;;;5375063;26;20004;-60
2024/04/22 09:48:28;;;;;;;2.25;1.40;;;13.80;62.50;;;;;;5368129;26;20003;-62
2024/04/22 09:50:56;;;;;;;2.53;1.42;;;14.00;59.70;;;;;;5363632;26;20024;-60
2024/04/22 09:53:22;;;;;;;2.28;1.25;;;13.50;61.30;;;;;;5361473;26;20016;-61
2024/04/22 09:55:50;;;;;;;3.70;1.80;;;13.00;65.00;;;;;;5375477;26;21200;-60
2024/04/22 09:58:18;;;;;;;2.33;1.90;;;13.70;65.80;;;;;;5369599;26;20000;-60
2024/04/22 10:00:43;;;;;;;2.00;1.27;;;14.50;62.90;;;;;;5373440;26;20012;-59
2024/04/22 10:03:09;;;;;;;3.15;1.77;;;15.00;64.30;;;;;;5374165;26;20061;-60
2024/04/22 10:05:37;;;;;;;2.90;2.00;;;15.50;64.10;;;;;;5377097;26;20708;-61
2024/04/22 10:08:03;;;;;;;2.38;1.48;;;15.40;61.20;;;;;;5371482;26;20061;-60
2024/04/22 10:10:28;;;;;;;5.45;2.22;;;15.40;57.70;;;;;;5371570;26;20016;-61
2024/04/22 10:12:54;;;;;;;2.97;1.05;;;14.80;59.90;;;;;;5377752;26;20004;-60
2024/04/22 10:15:20;;;;;;;3.00;1.50;;;14.50;58.70;;;;;;5356620;26;20008;-59
2024/04/22 10:17:46;;;;;;;2.05;1.42;;;14.30;61.00;;;;;;5373512;26;19996;-61
2024/04/22 10:20:12;;;;;;;2.70;1.73;;;14.10;60.30;;;;;;5375817;26;20004;-60
2024/04/22 10:22:38;;;;;;;1.48;1.20;;;14.00;63.80;;;;;;5382660;26;19997;-59
2024/04/22 10:25:05;;;;;;;3.20;2.05;;;14.10;60.60;;;;;;5376980;26;20006;-56
2024/04/22 10:27:32;;;;;;;2.85;1.38;;;13.80;62.40;;;;;;5377852;26;20358;-58
2024/04/22 10:30:01;;;;;;;4.05;1.77;;;13.90;61.50;;;;;;5377204;26;20044;-56
2024/04/22 10:32:26;;;;;;;4.25;1.55;;;13.70;60.90;;;;;;5376737;26;20852;-63
2024/04/22 10:34:53;;;;;;;2.45;1.30;;;13.60;60.80;;;;;;5377690;26;20015;-61
2024/04/22 10:37:19;;;;;;;3.53;1.42;;;13.20;61.90;;;;;;5374811;26;20032;-60
2024/04/22 10:39:45;;;;;;;1.65;1.27;;;12.50;62.80;;;;;;5375055;26;20012;-60
2024/04/22 10:42:12;;;;;;;4.93;1.77;;;12.40;61.80;;;;;;5375426;26;19996;-61
2024/04/22 10:44:38;;;;;;;1.90;1.33;;;12.90;62.70;;;;;;5382528;26;20469;-58
2024/04/22 10:47:06;;;;;;;2.80;1.40;;;13.10;62.80;;;;;;5377963;26;20008;-60
2024/04/22 10:49:32;;;;;;;2.22;1.20;;;13.10;62.90;;;;;;5375482;26;19996;-56
2024/04/22 10:51:58;;;;;;;1.58;1.17;;;13.30;62.00;;;;;;5373111;26;20071;-59
2024/04/22 10:54:24;;;;;;;1.83;1.42;;;13.20;60.80;;;;;;5369590;26;20014;-59
2024/04/22 10:56:50;;;;;;;2.15;1.55;;;13.00;60.60;;;;;;5375086;26;20004;-57
2024/04/22 10:59:16;;;;;;;3.65;1.45;;;13.00;61.60;;;;;;5372395;26;20000;-60
2024/04/22 11:01:42;;;;;;;3.33;1.55;;;12.90;63.80;;;;;;5371533;26;20020;-58
2024/04/22 11:04:08;;;;;;;3.63;1.42;;;12.80;65.00;;;;;;5375033;26;20012;-59
2024/04/22 11:06:37;;;;;;;3.15;1.70;;;12.90;62.00;;;;;;5372765;26;19996;-60
2024/04/22 11:09:04;;;;;;;4.95;2.78;;;12.60;64.40;;;;;;5369910;26;20012;-60
2024/04/22 11:11:30;;;;;;;1.73;1.25;;;12.70;63.90;;;;;;5365838;26;20008;-60
2024/04/22 11:13:56;;;;;;;2.72;1.50;;;12.90;62.90;;;;;;5373168;26;20438;-59
2024/04/22 11:16:22;;;;;;;2.22;1.15;;;12.80;63.70;;;;;;5354301;26;20015;-61
2024/04/22 11:18:47;;;;;;;3.17;1.45;;;13.00;62.50;;;;;;5373327;26;20005;-60
2024/04/22 11:21:13;;;;;;;3.33;1.90;;;13.00;64.10;;;;;;5369520;26;20011;-60
2024/04/22 11:23:39;;;;;;;2.60;1.60;;;13.10;62.20;;;;;;5367331;26;20012;-60
2024/04/22 11:26:05;;;;;;;3.38;1.20;;;13.10;61.10;;;;;;5370940;26;20076;-59
2024/04/22 11:28:31;;;;;;;2.38;1.42;;;12.70;63.50;;;;;;5372359;26;20542;-59
2024/04/22 11:30:56;;;;;;;2.15;1.30;;;12.70;62.70;;;;;;5370148;26;20015;-60
2024/04/22 11:33:23;;;;;;;2.35;1.25;;;12.30;62.70;;;;;;5369565;26;20004;-59
2024/04/22 11:35:53;;;;;;;3.42;1.15;;;12.10;63.60;;;;;;5372094;26;20012;-59
2024/04/22 11:38:23;;;;;;;2.85;1.13;;;11.90;64.20;;;;;;5366708;26;20004;-60
2024/04/22 11:40:49;;;;;;;3.45;1.83;;;12.00;64.50;;;;;;5402990;26;19993;-61
2024/04/22 11:43:15;;;;;;;1.52;1.10;;;12.10;63.90;;;;;;5371814;26;20091;-59
2024/04/22 11:45:40;;;;;;;3.88;1.60;;;12.20;65.90;;;;;;5371488;26;19996;-60
2024/04/22 11:48:06;;;;;;;2.78;1.58;;;12.50;68.10;;;;;;5370631;26;20004;-59
2024/04/22 11:50:32;;;;;;;2.40;1.35;;;12.70;64.50;;;;;;5368465;26;20004;-58
2024/04/22 11:52:58;;;;;;;2.08;1.30;;;12.80;63.60;;;;;;5373912;26;20076;-60
2024/04/22 11:55:23;;;;;;;3.10;1.27;;;12.60;63.90;;;;;;5371450;26;20074;-59
2024/04/22 11:57:49;;;;;;;4.25;1.20;;;12.70;63.80;;;;;;5373383;26;19993;-58
2024/04/22 12:00:15;;;;;;;2.53;1.27;;;12.60;66.20;;;;;;5376273;26;20001;-56
2024/04/22 12:02:40;;;;;;;2.53;1.52;;;12.70;66.30;;;;;;5368892;26;21202;-61
2024/04/22 12:05:12;;;;;;;3.25;1.20;;;12.70;65.40;;;;;;5376904;26;20000;-60
2024/04/22 12:07:42;;;;;;;2.78;1.40;;;13.00;65.20;;;;;;5376244;26;20004;-61
2024/04/22 12:10:11;;;;;;;2.05;1.30;;;13.60;64.50;;;;;;5373938;26;20014;-61
2024/04/22 12:12:38;;;;;;;2.53;1.60;;;13.80;62.50;;;;;;5367862;26;19997;-61
2024/04/22 12:15:03;;;;;;;5.07;1.48;;;13.90;62.50;;;;;;5345763;26;21766;-60
2024/04/22 12:17:29;;;;;;;3.53;1.55;;;13.90;61.30;;;;;;5374694;26;20019;-61
2024/04/22 12:19:54;;;;;;;1.58;1.20;;;13.40;61.00;;;;;;5373901;26;19996;-60
2024/04/22 12:22:20;;;;;;;2.38;1.30;;;13.00;61.60;;;;;;5375325;26;20024;-61
2024/04/22 12:24:46;;;;;;;4.22;1.60;;;12.30;64.40;;;;;;5374574;26;19996;-60
2024/04/22 12:27:11;;;;;;;4.95;1.40;;;12.30;65.00;;;;;;5374603;26;20004;-60
2024/04/22 12:29:37;;;;;;;1.90;1.00;;;12.40;65.30;;;;;;5373006;26;20128;-60
2024/04/22 12:32:04;;;;;;;1.70;1.15;;;12.40;63.80;;;;;;5380121;26;20000;-59
2024/04/22 12:34:29;;;;;;;1.95;1.05;;;12.00;64.10;;;;;;5371676;26;20098;-59
2024/04/22 12:36:57;;;;;;;3.30;1.20;;;12.00;65.90;;;;;;5366239;26;23228;-60
2024/04/22 12:39:22;;;;;;;2.83;1.77;;;12.00;67.50;;;;;;5367439;26;20319;-60
2024/04/22 12:41:48;;;;;;;2.03;1.38;;;11.90;68.40;;;;;;5375278;26;20054;-59
2024/04/22 12:44:13;;;;;;;3.63;1.27;;;12.00;64.20;;;;;;5371571;26;20450;-59
2024/04/22 12:52:08;;;;;;;3.85;1.80;;;11.70;68.50;;;;;;5368324;26;20010;-59
2024/04/22 12:54:34;;;;;;;3.17;1.30;;;11.20;72.90;;;;;;5357159;26;20036;-58
2024/04/22 12:57:00;;;;;;;5.25;1.70;;;10.60;75.00;;;;;;5361731;26;19992;-55
2024/04/22 12:59:25;;;;;;;5.07;1.70;;;10.10;77.60;;;;;;5367758;26;20008;-57